首页
METAR-TAF:

METAR-TAF

机场 :

雷烏斯, 西班牙

纬度: 41-09N, 经度: 001-10E, 海拔: 71米

当前天气观测

该预报发布于38分钟前的16:00 UTC
风速12节,风向西转西南,在南转西南西之间变化
温度 27°C
湿度 39%
气压 1008 hPa
能见度10公里或以上
1500米以下无云,无积雨云

METAR: LERS 051600Z 24012KT 210V280 CAVOK 27/12 Q1008

时间: 18:38 (16:38 UTC)

预报

该预报发布于1小时和8分钟前的15:30 UTC
预报有效从05日的 15点(UTC)到 06日的 15点(UTC)
风速12节,风向西转西南
能见度10公里或以上
少量云层高于3000英尺
成为
从 05日的 22点(UTC)到 05日的 24点(UTC)
风速4节,风向多变
成为
从 06日的 08点(UTC)到 06日的 10点(UTC)
风速10节,风向东转东南

TAF: LERS 051530Z 0515/0615 24012KT 9999 FEW030 TX26/0612Z TN15/0606Z BECMG 0522/0524 VRB04KT BECMG 0608/0610 12010KT

超过4000个机场的气象观测和天气预报(METAR&TAF报告)。

可查询的气象台以黄色和红色小点在地图上表示。

将鼠标移到小点上方,可查看气象台名称。

然后点击查看天气观测和预报。

如需切换地图:点击带黑十字的绿色按钮放大地图;点击带横线的绿色按钮缩小地图;或者点击绿色箭头查看邻近地区的地图。


METAR-TAF: